createdAt,value
2022-08-07T00:00:45.013Z,98619.44
2022-08-07T00:03:36.680Z,98617.28
2022-08-07T00:06:33.001Z,98613.91
2022-08-07T00:09:35.389Z,98612.84
2022-08-07T00:12:22.720Z,98614.38
2022-08-07T00:15:12.745Z,98615.69
2022-08-07T00:18:01.791Z,98617.72
2022-08-07T00:20:50.701Z,98615.50
2022-08-07T00:23:40.240Z,98620.06
2022-08-07T00:26:49.058Z,98621.03
2022-08-07T00:29:36.893Z,98617.81
2022-08-07T00:32:28.759Z,98623.53
2022-08-07T00:35:23.158Z,98625.47
2022-08-07T00:38:10.217Z,98642.94
2022-08-07T00:41:00.843Z,98648.94
2022-08-07T00:43:58.939Z,98650.38
2022-08-07T00:46:50.128Z,98677.56
2022-08-07T00:50:19.612Z,98672.22
2022-08-07T00:52:49.681Z,98694.97
2022-08-07T00:56:03.431Z,98692.75
2022-08-07T00:58:49.575Z,98696.56
2022-08-07T01:01:44.193Z,98705.59
2022-08-07T01:04:32.582Z,98703.53
2022-08-07T01:07:22.044Z,98719.22
2022-08-07T01:10:11.175Z,98729.72
2022-08-07T01:13:02.683Z,98726.47
2022-08-07T01:16:01.141Z,98742.78
2022-08-07T01:18:53.266Z,98759.41
2022-08-07T01:21:44.825Z,98757.59
2022-08-07T01:24:37.360Z,98755.94
2022-08-07T01:27:32.071Z,98782.34
2022-08-07T01:30:20.867Z,98796.31
2022-08-07T01:33:15.609Z,98779.81
2022-08-07T01:36:09.428Z,98793.78
2022-08-07T01:39:00.454Z,98811.56
2022-08-07T01:42:07.245Z,98810.72
2022-08-07T01:44:57.630Z,98802.25
2022-08-07T01:48:18.212Z,98806.97
2022-08-07T01:51:17.144Z,98816.13
2022-08-07T01:54:21.980Z,98817.63
2022-08-07T01:57:28.315Z,98812.28
2022-08-07T02:00:28.818Z,98822.97
2022-08-07T02:03:26.302Z,98811.47
2022-08-07T02:06:31.750Z,98804.44
2022-08-07T02:09:52.128Z,98858.63
2022-08-07T02:12:40.953Z,98818.84
2022-08-07T02:15:35.018Z,98867.28
2022-08-07T02:18:23.478Z,98844.47
2022-08-07T02:21:16.005Z,98851.09
2022-08-07T02:24:05.204Z,98839.25
2022-08-07T02:26:56.151Z,98828.69
2022-08-07T02:29:54.166Z,98864.31
2022-08-07T02:33:03.851Z,98851.94
2022-08-07T02:36:30.964Z,98830.13
2022-08-07T02:38:33.405Z,98878.25
2022-08-07T02:41:07.983Z,98858.28
2022-08-07T02:43:39.560Z,98864.34
2022-08-07T02:46:08.859Z,98863.19
2022-08-07T02:48:37.819Z,98867.16
2022-08-07T02:51:29.222Z,98830.03
2022-08-07T02:54:02.831Z,98863.78
2022-08-07T02:56:32.543Z,98885.44
2022-08-07T02:59:02.261Z,98852.38
2022-08-07T03:01:35.661Z,98851.69
2022-08-07T03:04:07.052Z,98856.03
2022-08-07T03:06:35.700Z,98854.09
2022-08-07T03:09:11.109Z,98896.38
2022-08-07T03:11:52.369Z,98885.13
2022-08-07T03:14:28.099Z,98904.25
2022-08-07T03:16:56.915Z,98878.09
2022-08-07T03:19:28.947Z,98867.72
2022-08-07T03:22:18.980Z,98872.63
2022-08-07T03:24:49.124Z,98898.06
2022-08-07T03:27:30.448Z,98940.44
2022-08-07T03:30:14.016Z,98922.22
2022-08-07T03:32:57.113Z,98938.38
2022-08-07T03:35:43.858Z,98904.06
2022-08-07T03:38:21.020Z,98948.31
2022-08-07T03:40:57.096Z,98921.50
2022-08-07T03:43:26.844Z,98917.00
2022-08-07T03:46:03.430Z,98916.72
2022-08-07T03:48:32.907Z,98950.00
2022-08-07T03:51:01.962Z,98956.72
2022-08-07T03:54:05.833Z,98960.50
2022-08-07T03:56:32.778Z,98936.22
2022-08-07T03:59:09.803Z,98933.28
2022-08-07T04:01:46.833Z,98995.72
2022-08-07T04:04:21.751Z,98943.19
2022-08-07T04:06:53.021Z,99006.38
2022-08-07T04:09:23.674Z,98970.16
2022-08-07T04:12:24.481Z,99021.31
2022-08-07T04:14:49.211Z,99010.56
2022-08-07T04:17:20.864Z,98993.78
2022-08-07T04:19:54.998Z,98971.91
2022-08-07T04:22:29.003Z,98967.84
2022-08-07T04:25:01.663Z,99041.75
2022-08-07T04:27:35.406Z,99043.19
2022-08-07T04:30:10.261Z,99023.88
2022-08-07T04:32:58.210Z,99024.06
2022-08-07T04:35:26.466Z,99021.13
2022-08-07T04:38:05.545Z,98981.94
2022-08-07T04:40:52.027Z,99022.00
2022-08-07T04:44:12.905Z,98959.38
2022-08-07T04:46:42.820Z,98987.47
2022-08-07T04:49:58.135Z,98945.75
2022-08-07T04:53:03.315Z,99034.41
2022-08-07T04:58:12.485Z,99004.22
2022-08-07T04:59:16.911Z,99010.16
2022-08-07T05:02:11.366Z,98999.22
2022-08-07T05:05:51.960Z,99000.75
2022-08-07T05:08:07.671Z,98918.22
2022-08-07T05:10:41.747Z,98838.75
2022-08-07T05:14:52.322Z,98758.09
2022-08-07T05:16:10.377Z,98684.34
2022-08-07T05:18:48.466Z,98705.31
2022-08-07T05:22:00.169Z,98768.72
2022-08-07T05:24:17.077Z,98804.66
2022-08-07T05:26:47.246Z,98829.13
2022-08-07T05:29:21.223Z,98825.50
2022-08-07T05:31:52.940Z,98829.19
2022-08-07T05:34:27.626Z,98845.25
2022-08-07T05:36:56.108Z,98838.72
2022-08-07T05:40:14.236Z,98846.09
2022-08-07T05:42:34.404Z,98761.44
2022-08-07T05:45:14.358Z,98745.97
2022-08-07T05:48:01.690Z,98723.34
2022-08-07T05:50:34.568Z,98718.31
2022-08-07T05:53:03.261Z,98722.69
2022-08-07T05:56:03.419Z,98689.91
2022-08-07T05:58:30.252Z,98648.97
2022-08-07T06:01:06.029Z,98650.50
2022-08-07T06:03:56.753Z,98702.47
2022-08-07T06:06:29.607Z,98678.38
2022-08-07T06:09:04.706Z,98688.09
2022-08-07T06:11:35.555Z,98862.06
2022-08-07T06:14:11.624Z,98769.22
2022-08-07T06:16:50.241Z,98752.19
2022-08-07T06:19:52.026Z,98782.75
2022-08-07T06:22:23.973Z,98869.84
2022-08-07T06:25:15.855Z,98863.38
2022-08-07T06:28:00.323Z,98778.75
2022-08-07T06:30:36.115Z,98780.25
2022-08-07T06:33:16.013Z,98638.63
2022-08-07T06:36:06.786Z,98581.34
2022-08-07T06:38:51.285Z,98566.47
2022-08-07T06:42:00.737Z,98569.41
2022-08-07T06:44:51.311Z,98667.75
2022-08-07T06:47:19.086Z,98755.25
2022-08-07T06:49:51.769Z,98813.34
2022-08-07T06:52:31.638Z,98913.31
2022-08-07T06:55:34.246Z,98922.75
2022-08-07T06:58:09.496Z,98851.66
2022-08-07T07:00:45.255Z,98989.06
2022-08-07T07:03:14.320Z,98966.03
2022-08-07T07:06:03.283Z,99058.56
2022-08-07T07:08:33.066Z,98987.63
2022-08-07T07:11:00.860Z,98992.53
2022-08-07T07:13:58.293Z,99054.75
2022-08-07T07:16:30.796Z,99011.53
2022-08-07T07:19:54.767Z,99060.59
2022-08-07T07:22:05.088Z,99030.66
2022-08-07T07:24:43.144Z,99030.16
2022-08-07T07:27:35.832Z,99046.28
2022-08-07T07:30:32.449Z,99011.25
2022-08-07T07:33:02.383Z,99073.81
2022-08-07T07:35:33.530Z,99022.97
2022-08-07T07:38:13.292Z,99040.34
2022-08-07T07:40:41.895Z,99034.56
2022-08-07T07:43:18.511Z,99004.25
2022-08-07T07:46:49.875Z,99005.31
2022-08-07T07:48:37.357Z,99028.72
2022-08-07T07:51:07.833Z,99018.19
2022-08-07T07:53:51.264Z,99025.94
2022-08-07T07:56:30.399Z,99030.06
2022-08-07T07:59:02.695Z,99008.41
2022-08-07T08:02:03.109Z,99034.91
2022-08-07T08:04:25.450Z,99052.72
2022-08-07T08:06:55.150Z,98988.50
2022-08-07T08:09:29.497Z,99009.72
2022-08-07T08:12:02.116Z,98986.97
2022-08-07T08:14:36.658Z,99035.13
2022-08-07T08:17:56.094Z,99028.47
2022-08-07T08:20:18.120Z,99007.50
2022-08-07T08:23:15.015Z,98982.63
2022-08-07T08:26:06.886Z,98992.75
2022-08-07T08:28:44.818Z,99031.94
2022-08-07T08:31:29.859Z,99017.19
2022-08-07T08:34:06.107Z,98971.97
2022-08-07T08:36:35.384Z,99053.53
2022-08-07T08:39:03.943Z,98999.66
2022-08-07T08:41:58.649Z,99010.59
2022-08-07T08:44:33.534Z,99013.28
2022-08-07T08:47:10.084Z,99044.47
2022-08-07T08:50:04.956Z,99032.06
2022-08-07T08:52:40.848Z,99052.81
2022-08-07T08:55:54.435Z,99041.91
2022-08-07T08:58:36.888Z,98999.81
2022-08-07T09:01:20.556Z,99036.19
2022-08-07T09:04:08.592Z,99009.16
2022-08-07T09:07:11.898Z,98978.25
2022-08-07T09:10:03.429Z,99011.88
2022-08-07T09:12:53.575Z,99017.44
2022-08-07T09:16:21.958Z,99027.69
2022-08-07T09:18:41.485Z,98986.41
2022-08-07T09:21:57.576Z,99010.38
2022-08-07T09:25:11.831Z,99005.41
2022-08-07T09:30:02.368Z,98993.69
2022-08-07T09:31:17.753Z,99003.47
2022-08-07T09:34:00.531Z,99000.41
2022-08-07T09:36:37.040Z,99010.91
2022-08-07T09:39:57.734Z,98981.06
2022-08-07T09:42:40.505Z,98982.69
2022-08-07T09:47:52.419Z,98972.47
2022-08-07T09:49:59.461Z,98958.53
2022-08-07T09:52:16.541Z,98972.66
2022-08-07T09:54:47.257Z,98979.16
2022-08-07T09:57:29.974Z,98985.13
2022-08-07T10:00:14.689Z,98959.34
2022-08-07T10:03:08.155Z,98934.09
2022-08-07T10:06:00.604Z,98956.19
2022-08-07T10:09:03.033Z,98941.09
2022-08-07T10:12:01.963Z,98971.56
2022-08-07T10:14:55.039Z,98945.56
2022-08-07T10:18:03.333Z,98900.28
2022-08-07T10:20:58.921Z,98930.81
2022-08-07T10:24:04.734Z,98947.41
2022-08-07T10:26:35.355Z,98902.41
2022-08-07T10:29:30.332Z,98876.22
2022-08-07T10:32:50.926Z,98868.28
2022-08-07T10:35:25.726Z,98891.97
2022-08-07T10:38:46.427Z,98921.75
2022-08-07T10:41:46.545Z,98909.91
2022-08-07T10:44:38.058Z,98873.16
2022-08-07T10:47:52.930Z,98884.63
2022-08-07T10:50:29.762Z,98834.59
2022-08-07T10:53:44.086Z,98870.94
2022-08-07T10:56:51.012Z,98896.47
2022-08-07T10:59:47.498Z,98928.81
2022-08-07T11:02:27.370Z,98973.88
2022-08-07T11:05:19.450Z,98929.13
2022-08-07T11:08:29.224Z,98941.28
2022-08-07T11:11:02.917Z,98925.97
2022-08-07T11:14:42.534Z,98919.31
2022-08-07T11:16:37.328Z,98922.72
2022-08-07T11:19:11.435Z,98914.88
2022-08-07T11:21:47.686Z,98916.69
2022-08-07T11:24:33.387Z,98913.91
2022-08-07T11:27:21.491Z,98911.09
2022-08-07T11:30:41.861Z,98920.66
2022-08-07T11:33:14.309Z,98905.94
2022-08-07T11:35:59.485Z,98899.00
2022-08-07T11:38:40.048Z,98907.31
2022-08-07T11:41:22.327Z,98901.78
2022-08-07T11:44:11.785Z,98879.84
2022-08-07T11:46:48.655Z,98889.72
2022-08-07T11:50:11.542Z,98869.84
2022-08-07T11:52:49.871Z,98884.66
2022-08-07T11:56:15.534Z,98885.00
2022-08-07T11:58:49.875Z,98898.00
2022-08-07T12:01:19.948Z,98892.38
2022-08-07T12:04:28.091Z,98885.88
2022-08-07T12:07:23.585Z,98898.59
2022-08-07T12:10:05.690Z,98892.78
2022-08-07T12:12:43.861Z,98889.28
2022-08-07T12:15:46.466Z,98897.88
2022-08-07T12:18:34.888Z,98894.72
2022-08-07T12:21:56.019Z,98893.81
2022-08-07T12:25:17.909Z,98888.72
2022-08-07T12:28:09.225Z,98893.94
2022-08-07T12:30:40.728Z,98875.88
2022-08-07T12:33:30.807Z,98887.06
2022-08-07T12:36:02.276Z,98885.06
2022-08-07T12:38:43.048Z,98867.84
2022-08-07T12:41:14.673Z,98874.09
2022-08-07T12:44:01.381Z,98880.63
2022-08-07T12:47:27.109Z,98883.44
2022-08-07T12:50:38.929Z,98873.09
2022-08-07T12:53:18.041Z,98867.44
2022-08-07T12:56:12.322Z,98860.03
2022-08-07T12:58:57.261Z,98858.78
2022-08-07T13:01:27.970Z,98855.50
2022-08-07T13:04:32.554Z,98853.84
2022-08-07T13:08:11.674Z,98835.81
2022-08-07T13:10:37.735Z,98834.59
2022-08-07T13:13:48.247Z,98834.88
2022-08-07T13:16:19.684Z,98837.84
2022-08-07T13:19:18.265Z,98824.34
2022-08-07T13:22:19.368Z,98816.50
2022-08-07T13:25:24.248Z,98818.38
2022-08-07T13:28:13.765Z,98813.84
2022-08-07T13:30:53.610Z,98806.31
2022-08-07T13:34:30.796Z,98822.03
2022-08-07T13:36:54.382Z,98810.25
2022-08-07T13:39:49.122Z,98802.75
2022-08-07T13:42:14.596Z,98809.78
2022-08-07T13:45:11.480Z,98810.84
2022-08-07T13:48:05.809Z,98813.41
2022-08-07T13:50:35.435Z,98818.03
2022-08-07T13:53:22.015Z,98803.72
2022-08-07T13:55:56.879Z,98805.09
2022-08-07T13:58:56.084Z,98807.25
2022-08-07T14:01:26.286Z,98806.41
2022-08-07T14:04:06.765Z,98783.88
2022-08-07T14:06:38.374Z,98788.75
2022-08-07T14:09:09.787Z,98783.34
2022-08-07T14:11:53.140Z,98777.75
2022-08-07T14:14:31.493Z,98777.13
2022-08-07T14:17:31.982Z,98792.97
2022-08-07T14:20:41.760Z,98784.97
2022-08-07T14:22:51.633Z,98787.47
2022-08-07T14:25:25.779Z,98778.13
2022-08-07T14:28:12.452Z,98774.69
2022-08-07T14:30:45.795Z,98778.41
2022-08-07T14:33:15.087Z,98763.16
2022-08-07T14:35:45.786Z,98768.06
2022-08-07T14:38:30.726Z,98763.72
2022-08-07T14:41:12.312Z,98749.13
2022-08-07T14:43:58.116Z,98747.13
2022-08-07T14:46:34.472Z,98755.84
2022-08-07T14:49:17.332Z,98770.81
2022-08-07T14:52:03.842Z,98760.97
2022-08-07T14:54:45.470Z,98754.56
2022-08-07T14:57:18.695Z,98754.19
2022-08-07T15:00:04.558Z,98746.59
2022-08-07T15:02:37.131Z,98752.00
2022-08-07T15:05:19.681Z,98751.22
2022-08-07T15:07:52.012Z,98754.66
2022-08-07T15:10:26.664Z,98746.72
2022-08-07T15:13:00.790Z,98732.41
2022-08-07T15:15:41.987Z,98740.69
2022-08-07T15:25:13.712Z,98732.50
2022-08-07T15:27:08.755Z,98736.97
2022-08-07T15:30:09.794Z,98738.06
2022-08-07T15:32:39.029Z,98728.53
2022-08-07T15:35:12.396Z,98734.19
2022-08-07T15:38:17.235Z,98728.72
2022-08-07T15:40:34.913Z,98727.47
2022-08-07T15:43:10.811Z,98723.56
2022-08-07T15:46:31.164Z,98708.19
2022-08-07T15:49:03.620Z,98709.53
2022-08-07T15:54:34.765Z,98703.69
2022-08-07T15:57:39.204Z,98704.97
2022-08-07T15:59:59.496Z,98719.88
2022-08-07T16:02:54.764Z,98709.09
2022-08-07T16:05:31.157Z,98706.50
2022-08-07T16:08:30.251Z,98707.44
2022-08-07T16:11:02.684Z,98709.31
2022-08-07T16:13:59.438Z,98707.03
2022-08-07T16:17:02.604Z,98707.66
2022-08-07T16:20:00.013Z,98701.88
2022-08-07T16:22:30.156Z,98707.25
2022-08-07T16:25:55.332Z,98698.66
2022-08-07T16:30:05.491Z,98695.31
2022-08-07T16:32:07.918Z,98688.19
2022-08-07T16:34:59.144Z,98685.34
2022-08-07T16:38:03.478Z,98690.13
2022-08-07T16:40:57.266Z,98685.78
2022-08-07T16:44:40.445Z,98676.03
2022-08-07T16:47:16.044Z,98692.50
2022-08-07T16:50:28.022Z,98689.78
2022-08-07T16:53:55.493Z,98674.06
2022-08-07T16:56:20.264Z,98677.25
2022-08-07T16:59:11.344Z,98676.88
2022-08-07T17:01:47.813Z,98678.56
2022-08-07T17:04:31.753Z,98680.28
2022-08-07T17:07:28.353Z,98672.47
2022-08-07T17:10:32.390Z,98680.84
2022-08-07T17:13:23.801Z,98688.44
2022-08-07T17:16:29.960Z,98684.88
2022-08-07T17:19:15.854Z,98690.16
2022-08-07T17:21:58.724Z,98687.44
2022-08-07T17:24:47.966Z,98690.75
2022-08-07T17:27:19.986Z,98690.84
2022-08-07T17:30:14.177Z,98687.84
2022-08-07T17:34:10.162Z,98686.69
2022-08-07T17:36:20.517Z,98696.59
2022-08-07T17:39:21.553Z,98688.28
2022-08-07T17:42:02.897Z,98682.72
2022-08-07T17:44:52.127Z,98682.78
2022-08-07T17:47:58.135Z,98676.09
2022-08-07T17:50:46.932Z,98666.03
2022-08-07T17:54:01.609Z,98659.81
2022-08-07T17:56:32.689Z,98668.59
2022-08-07T17:59:35.623Z,98656.47
2022-08-07T18:02:27.137Z,98674.66
2022-08-07T18:05:20.963Z,98673.63
2022-08-07T18:08:24.454Z,98676.81
2022-08-07T18:12:20.000Z,98691.50
2022-08-07T18:14:01.382Z,98677.50
2022-08-07T18:16:32.871Z,98684.84
2022-08-07T18:21:07.605Z,98681.94
2022-08-07T18:22:40.074Z,98665.03
2022-08-07T18:25:24.070Z,98683.03
2022-08-07T18:28:34.123Z,98664.41
2022-08-07T18:31:23.788Z,98656.31
2022-08-07T18:34:40.925Z,98660.72
2022-08-07T18:38:56.299Z,98662.19
2022-08-07T18:40:59.298Z,98641.72
2022-08-07T18:43:50.166Z,98653.00
2022-08-07T18:46:28.448Z,98652.81
2022-08-07T18:50:29.842Z,98631.13
2022-08-07T18:52:34.806Z,98665.50
2022-08-07T18:55:42.583Z,98647.34
2022-08-07T18:58:18.096Z,98652.13
2022-08-07T19:00:53.699Z,98650.66
2022-08-07T19:03:49.632Z,98636.91
2022-08-07T19:06:33.886Z,98573.91
2022-08-07T19:09:56.866Z,98605.38
2022-08-07T19:12:17.973Z,98525.66
2022-08-07T19:16:03.020Z,98505.41
2022-08-07T19:18:34.479Z,98412.28
2022-08-07T19:21:08.932Z,98456.19
2022-08-07T19:23:58.177Z,98398.25
2022-08-07T19:26:43.444Z,98419.06
2022-08-07T19:30:57.589Z,98405.28
2022-08-07T19:32:29.001Z,98415.31
2022-08-07T19:35:12.624Z,98427.56
2022-08-07T19:37:55.123Z,98414.44
2022-08-07T19:40:31.600Z,98424.00
2022-08-07T19:43:12.035Z,98422.75
2022-08-07T19:46:09.286Z,98405.25
2022-08-07T19:48:44.011Z,98403.97
2022-08-07T19:51:19.797Z,98329.41
2022-08-07T19:54:34.049Z,98270.53
2022-08-07T19:57:51.208Z,98280.22
2022-08-07T19:59:39.822Z,98307.09
2022-08-07T20:02:19.515Z,98290.59
2022-08-07T20:04:50.169Z,98285.19
2022-08-07T20:07:23.726Z,98292.41
2022-08-07T20:10:38.444Z,98311.97
2022-08-07T20:12:47.888Z,98292.19
2022-08-07T20:15:24.351Z,98298.63
2022-08-07T20:18:05.811Z,98250.97
2022-08-07T20:20:42.782Z,98257.34
2022-08-07T20:23:40.281Z,98239.69
2022-08-07T20:26:10.061Z,98181.25
2022-08-07T20:28:38.515Z,98209.94
2022-08-07T20:31:21.120Z,98175.72
2022-08-07T20:33:56.812Z,98239.44
2022-08-07T20:36:27.169Z,98226.28
2022-08-07T20:39:00.447Z,98225.38
2022-08-07T20:41:38.466Z,98204.28
2022-08-07T20:44:10.364Z,98176.63
2022-08-07T20:46:43.867Z,98182.47
2022-08-07T20:49:58.049Z,98173.72
2022-08-07T20:52:00.567Z,98191.69
2022-08-07T20:54:32.026Z,98167.31
2022-08-07T20:57:06.845Z,98169.16
2022-08-07T21:00:06.832Z,98184.50
2022-08-07T21:02:54.520Z,98174.69
2022-08-07T21:05:54.464Z,98180.66
2022-08-07T21:08:51.010Z,98177.34
2022-08-07T21:11:50.727Z,98170.47
2022-08-07T21:14:48.463Z,98161.03
2022-08-07T21:18:02.034Z,98169.06
2022-08-07T21:20:56.106Z,98166.75
2022-08-07T21:23:57.393Z,98149.50
2022-08-07T21:26:51.002Z,98175.22
2022-08-07T21:30:08.477Z,98165.88
2022-08-07T21:33:10.700Z,98174.53
2022-08-07T21:36:31.077Z,98170.03
2022-08-07T21:39:45.252Z,98181.31
2022-08-07T21:42:54.510Z,98176.19
2022-08-07T21:46:08.116Z,98185.84
2022-08-07T21:49:18.566Z,98175.66
2022-08-07T21:52:16.712Z,98182.50
2022-08-07T21:55:36.964Z,98195.13
2022-08-07T21:58:32.860Z,98198.00
2022-08-07T22:02:07.696Z,98202.16
2022-08-07T22:04:39.096Z,98205.25
2022-08-07T22:07:57.967Z,98205.16
2022-08-07T22:10:50.203Z,98204.06
2022-08-07T22:13:52.102Z,98221.13
2022-08-07T22:17:00.778Z,98232.31
2022-08-07T22:20:22.910Z,98232.31
2022-08-07T22:23:21.488Z,98231.69
2022-08-07T22:26:24.427Z,98240.38
2022-08-07T22:29:34.017Z,98245.53
2022-08-07T22:32:42.516Z,98256.72
2022-08-07T22:35:45.896Z,98275.50
2022-08-07T22:38:47.875Z,98276.69
2022-08-07T22:42:04.142Z,98283.09
2022-08-07T22:44:58.133Z,98276.34
2022-08-07T22:47:49.464Z,98295.59
2022-08-07T22:50:55.349Z,98289.75
2022-08-07T22:54:06.527Z,98306.75
2022-08-07T22:56:55.698Z,98378.81
2022-08-07T22:59:57.375Z,98334.63
2022-08-07T23:03:17.597Z,98346.00
2022-08-07T23:06:15.480Z,98348.81
2022-08-07T23:10:04.036Z,98356.91
2022-08-07T23:12:56.573Z,98390.06
2022-08-07T23:16:07.148Z,98411.09
2022-08-07T23:19:58.003Z,98423.88
2022-08-07T23:22:54.753Z,98408.44
2022-08-07T23:25:51.599Z,98447.59
2022-08-07T23:29:17.155Z,98453.47
2022-08-07T23:34:23.538Z,98452.81
2022-08-07T23:36:01.209Z,98438.72
2022-08-07T23:38:55.409Z,98467.59
2022-08-07T23:42:04.116Z,98477.81
2022-08-07T23:46:02.221Z,98460.56
2022-08-07T23:49:00.360Z,98465.72
2022-08-07T23:53:01.376Z,98478.84
2022-08-07T23:55:51.970Z,98473.66
2022-08-07T23:58:49.827Z,98496.28
